KTVL/TVL METAR and TAF weather

Enter ICAO airport designator
Station Type Date Time Source
KTVL METAR 2019/07/15 19:53 UTC NOAA

KTVL 151953Z AUTO VRB05G17KT 10SM CLR 24/M01 A3025 RMK AO2 SLP187 T02391006


Station Type Date Time Source
KTVL Decoded METAR 2019/07/15 19:53 UTC NOAA

SOUTH LAKE TAHOE AIRPORT, CA, United States (KTVL) 38-53N 119-59W 1925M
Jul 15, 2019 - 03:53 PM EDT / 2019.07.15 1953 UTC
Wind: Variable at 6 MPH (5 KT) gusting to 20 MPH (17 KT):0
Visibility: 10 mile(s):0
Sky conditions: clear
Temperature: 75.0 F (23.9 C)
Dew Point: 30.9 F (-0.6 C)
Relative Humidity: 19%
Pressure (altimeter): 30.25 in. Hg (1024 hPa)
ob: KTVL 151953Z AUTO VRB05G17KT 10SM CLR 24/M01 A3025 RMK AO2 SLP187 T02391006
cycle: 20

Station Type Date Time Source
KTVL TAF 2019/07/15 18:22 UTC NOAA

TAF KTVL 151720Z 1518/1618 19014G24KT P6SM FEW100
FM160300 19005KT P6SM SKC

Example: see airport list